createdAt,value
2022-12-04T00:00:28.538Z,0.91
2022-12-04T00:03:15.961Z,0.90
2022-12-04T00:05:43.390Z,0.93
2022-12-04T00:08:10.853Z,0.93
2022-12-04T00:10:38.478Z,0.93
2022-12-04T00:13:06.165Z,0.89
2022-12-04T00:15:33.679Z,0.85
2022-12-04T00:18:01.143Z,0.82
2022-12-04T00:20:28.627Z,0.83
2022-12-04T00:22:56.128Z,0.84
2022-12-04T00:25:23.510Z,0.84
2022-12-04T00:27:51.134Z,0.85
2022-12-04T00:30:18.608Z,0.85
2022-12-04T00:32:45.994Z,0.86
2022-12-04T00:35:13.453Z,0.85
2022-12-04T00:37:40.868Z,0.83
2022-12-04T00:40:08.496Z,0.84
2022-12-04T00:42:36.099Z,0.83
2022-12-04T00:45:03.605Z,0.82
2022-12-04T00:47:30.979Z,0.79
2022-12-04T00:49:58.374Z,0.77
2022-12-04T00:52:25.888Z,0.75
2022-12-04T00:54:53.296Z,0.73
2022-12-04T00:57:20.940Z,0.73
2022-12-04T00:59:48.347Z,0.72
2022-12-04T01:02:15.835Z,0.72
2022-12-04T01:04:43.349Z,0.72
2022-12-04T01:07:10.990Z,0.71
2022-12-04T01:09:39.149Z,0.69
2022-12-04T01:12:06.909Z,0.69
2022-12-04T01:14:34.361Z,0.66
2022-12-04T01:17:01.978Z,0.66
2022-12-04T01:19:29.415Z,0.62
2022-12-04T01:21:56.892Z,0.57
2022-12-04T01:24:24.250Z,0.52
2022-12-04T01:26:51.640Z,0.48
2022-12-04T01:29:19.053Z,0.43
2022-12-04T01:31:46.874Z,0.36
2022-12-04T01:34:14.383Z,0.28
2022-12-04T01:36:41.750Z,0.25
2022-12-04T01:39:09.214Z,0.20
2022-12-04T01:41:36.607Z,0.15
2022-12-04T01:44:04.351Z,0.09
2022-12-04T01:46:32.439Z,0.01
2022-12-04T01:48:59.821Z,-0.07
2022-12-04T01:51:27.199Z,-0.14
2022-12-04T01:53:54.634Z,-0.18
2022-12-04T01:56:22.047Z,-0.21
2022-12-04T01:58:49.433Z,-0.26
2022-12-04T02:01:16.886Z,-0.29
2022-12-04T02:03:44.337Z,-0.36
2022-12-04T02:06:11.762Z,-0.41
2022-12-04T02:08:39.152Z,-0.44
2022-12-04T02:11:06.513Z,-0.46
2022-12-04T02:13:34.036Z,-0.48
2022-12-04T02:16:01.536Z,-0.45
2022-12-04T02:18:28.956Z,-0.41
2022-12-04T02:20:56.341Z,-0.40
2022-12-04T02:23:24.013Z,-0.39
2022-12-04T02:25:51.561Z,-0.34
2022-12-04T02:28:18.960Z,-0.35
2022-12-04T02:30:46.367Z,-0.34
2022-12-04T02:33:13.793Z,-0.29
2022-12-04T02:35:41.384Z,-0.21
2022-12-04T02:38:09.015Z,-0.13
2022-12-04T02:40:36.634Z,-0.06
2022-12-04T02:43:04.101Z,-0.01
2022-12-04T02:45:31.510Z,0.02
2022-12-04T02:47:59.188Z,0.03
2022-12-04T02:50:26.579Z,0.04
2022-12-04T02:52:53.998Z,0.06
2022-12-04T02:55:21.388Z,0.07
2022-12-04T02:57:48.770Z,0.08
2022-12-04T03:00:16.186Z,0.09
2022-12-04T03:02:43.793Z,0.07
2022-12-04T03:05:11.352Z,0.04
2022-12-04T03:07:38.963Z,-0.01
2022-12-04T03:10:06.539Z,-0.05
2022-12-04T03:12:34.228Z,-0.06
2022-12-04T03:15:02.186Z,-0.09
2022-12-04T03:17:29.985Z,-0.12
2022-12-04T03:19:57.997Z,-0.15
2022-12-04T03:22:25.558Z,-0.19
2022-12-04T03:24:52.942Z,-0.23
2022-12-04T03:27:20.438Z,-0.26
2022-12-04T03:29:47.870Z,-0.27
2022-12-04T03:32:15.681Z,-0.28
2022-12-04T03:34:43.191Z,-0.28
2022-12-04T03:37:10.587Z,-0.28
2022-12-04T03:39:38.316Z,-0.27
2022-12-04T03:42:05.952Z,-0.29
2022-12-04T03:44:33.527Z,-0.32
2022-12-04T03:47:01.266Z,-0.33
2022-12-04T03:49:28.816Z,-0.33
2022-12-04T03:51:56.498Z,-0.30
2022-12-04T03:54:24.170Z,-0.28
2022-12-04T03:56:51.905Z,-0.25
2022-12-04T03:59:19.686Z,-0.25
2022-12-04T04:01:47.468Z,-0.23
2022-12-04T04:04:15.171Z,-0.22
2022-12-04T04:06:42.821Z,-0.20
2022-12-04T04:09:10.402Z,-0.13
2022-12-04T04:11:38.158Z,-0.08
2022-12-04T04:14:05.785Z,-0.04
2022-12-04T04:16:33.408Z,0.02
2022-12-04T04:19:01.044Z,0.08
2022-12-04T04:21:28.414Z,0.09
2022-12-04T04:23:55.906Z,0.09
2022-12-04T04:26:23.269Z,0.08
2022-12-04T04:28:50.884Z,0.06
2022-12-04T04:31:18.859Z,0.08
2022-12-04T04:33:46.488Z,0.07
2022-12-04T04:36:14.095Z,0.07
2022-12-04T04:38:41.657Z,0.07
2022-12-04T04:41:09.267Z,0.05
2022-12-04T04:43:36.864Z,0.03
2022-12-04T04:46:04.527Z,0.00
2022-12-04T04:48:32.180Z,0.03
2022-12-04T04:50:59.853Z,0.05
2022-12-04T04:53:27.249Z,0.07
2022-12-04T04:55:54.727Z,0.07
2022-12-04T04:58:22.146Z,0.05
2022-12-04T05:00:49.713Z,0.04
2022-12-04T05:03:17.471Z,0.00
2022-12-04T05:05:45.125Z,-0.02
2022-12-04T05:08:12.618Z,0.00
2022-12-04T05:10:40.035Z,0.02
2022-12-04T05:13:07.536Z,0.02
2022-12-04T05:15:35.177Z,-0.01
2022-12-04T05:18:02.875Z,-0.04
2022-12-04T05:20:30.431Z,-0.06
2022-12-04T05:22:58.100Z,-0.07
2022-12-04T05:25:25.989Z,-0.05
2022-12-04T05:27:53.622Z,-0.07
2022-12-04T05:30:21.197Z,-0.08
2022-12-04T05:32:48.790Z,-0.08
2022-12-04T05:35:16.158Z,-0.11
2022-12-04T05:37:43.680Z,-0.13
2022-12-04T05:40:11.337Z,-0.17
2022-12-04T05:42:38.980Z,-0.21
2022-12-04T05:45:06.657Z,-0.23
2022-12-04T05:47:34.266Z,-0.21
2022-12-04T05:50:02.004Z,-0.18
2022-12-04T05:52:29.731Z,-0.13
2022-12-04T05:54:57.497Z,-0.11
2022-12-04T05:57:25.613Z,-0.12
2022-12-04T05:59:53.657Z,-0.13
2022-12-04T06:02:21.442Z,-0.12
2022-12-04T06:04:49.140Z,-0.06
2022-12-04T06:07:16.612Z,-0.02
2022-12-04T06:09:44.149Z,0.00
2022-12-04T06:12:11.536Z,-0.03
2022-12-04T06:14:39.909Z,-0.01
2022-12-04T06:17:07.660Z,-0.03
2022-12-04T06:19:35.365Z,-0.02
2022-12-04T06:22:02.836Z,0.01
2022-12-04T06:24:30.566Z,0.04
2022-12-04T06:27:26.094Z,0.05
2022-12-04T06:29:45.842Z,0.05
2022-12-04T06:32:18.020Z,0.06
2022-12-04T06:34:47.197Z,0.07
2022-12-04T06:37:14.714Z,0.11
2022-12-04T06:39:42.572Z,0.14
2022-12-04T06:42:10.103Z,0.17
2022-12-04T06:44:37.806Z,0.18
2022-12-04T06:47:05.404Z,0.17
2022-12-04T06:49:32.875Z,0.20
2022-12-04T06:52:00.269Z,0.24
2022-12-04T06:54:28.102Z,0.35
2022-12-04T06:56:55.826Z,0.43
2022-12-04T06:59:23.792Z,0.46
2022-12-04T07:01:51.414Z,0.44
2022-12-04T07:04:18.863Z,0.40
2022-12-04T07:06:46.447Z,0.37
2022-12-04T07:09:14.033Z,0.35
2022-12-04T07:11:41.848Z,0.40
2022-12-04T07:14:09.228Z,0.43
2022-12-04T07:16:40.708Z,0.43
2022-12-04T07:19:08.774Z,0.42
2022-12-04T07:21:36.529Z,0.40
2022-12-04T07:24:04.100Z,0.40
2022-12-04T07:26:31.828Z,0.45
2022-12-04T07:28:59.503Z,0.48
2022-12-04T07:31:27.075Z,0.53
2022-12-04T07:33:54.652Z,0.55
2022-12-04T07:36:22.364Z,0.59
2022-12-04T07:38:49.869Z,0.65
2022-12-04T07:41:17.527Z,0.71
2022-12-04T07:43:45.033Z,0.73
2022-12-04T07:46:13.305Z,0.76
2022-12-04T07:48:40.863Z,0.80
2022-12-04T07:51:08.267Z,0.80
2022-12-04T07:53:36.185Z,0.78
2022-12-04T07:56:03.722Z,0.74
2022-12-04T07:58:31.219Z,0.76
2022-12-04T08:00:58.837Z,0.79
2022-12-04T08:03:26.653Z,0.81
2022-12-04T08:05:54.042Z,0.76
2022-12-04T08:08:21.494Z,0.74
2022-12-04T08:10:48.924Z,0.75
2022-12-04T08:13:16.308Z,0.80
2022-12-04T08:15:43.787Z,0.86
2022-12-04T08:18:11.384Z,0.91
2022-12-04T08:20:39.087Z,1.00
2022-12-04T08:23:06.672Z,1.08
2022-12-04T08:25:34.197Z,1.13
2022-12-04T08:28:01.712Z,1.21
2022-12-04T08:30:29.181Z,1.32
2022-12-04T08:32:56.658Z,1.47
2022-12-04T08:35:24.096Z,1.60
2022-12-04T08:37:51.725Z,1.74
2022-12-04T08:40:19.505Z,1.86
2022-12-04T08:42:47.103Z,1.95
2022-12-04T08:45:14.978Z,2.03
2022-12-04T08:47:44.933Z,2.14
2022-12-04T08:50:15.591Z,2.31
2022-12-04T08:52:45.868Z,2.39
2022-12-04T08:55:13.828Z,2.44
2022-12-04T08:57:41.654Z,2.51
2022-12-04T09:00:09.365Z,2.57
2022-12-04T09:02:37.225Z,2.60
2022-12-04T09:05:05.407Z,2.62
2022-12-04T09:07:41.760Z,2.61
2022-12-04T09:10:11.702Z,2.69
2022-12-04T09:12:41.898Z,2.75
2022-12-04T09:15:10.902Z,2.80
2022-12-04T09:17:39.539Z,2.86
2022-12-04T09:20:07.535Z,2.92
2022-12-04T09:23:02.273Z,3.01
2022-12-04T09:25:24.400Z,3.16
2022-12-04T09:27:51.803Z,3.36
2022-12-04T09:30:20.773Z,3.56
2022-12-04T09:32:49.168Z,3.75
2022-12-04T09:35:17.274Z,3.91
2022-12-04T09:37:45.201Z,4.11
2022-12-04T09:40:13.685Z,4.23
2022-12-04T09:42:41.130Z,4.31
2022-12-04T09:45:09.018Z,4.44
2022-12-04T09:47:37.660Z,4.45
2022-12-04T09:50:05.452Z,4.55
2022-12-04T09:52:34.764Z,4.66
2022-12-04T09:55:03.262Z,4.75
2022-12-04T09:57:31.158Z,4.85
2022-12-04T09:59:59.067Z,4.92
2022-12-04T10:02:26.800Z,4.98
2022-12-04T10:04:55.241Z,4.95
2022-12-04T10:07:26.635Z,4.93
2022-12-04T10:09:55.489Z,4.94
2022-12-04T10:12:24.723Z,4.96
2022-12-04T10:14:54.139Z,4.99
2022-12-04T10:17:23.396Z,5.05
2022-12-04T10:19:59.016Z,5.11
2022-12-04T10:22:29.057Z,5.17
2022-12-04T10:24:57.137Z,5.22
2022-12-04T10:27:25.152Z,5.28
2022-12-04T10:29:53.711Z,5.36
2022-12-04T10:32:21.929Z,5.33
2022-12-04T10:34:49.338Z,5.23
2022-12-04T10:37:17.735Z,5.19
2022-12-04T10:39:45.412Z,5.15
2022-12-04T10:42:14.523Z,5.16
2022-12-04T10:44:42.131Z,5.19
2022-12-04T10:47:10.695Z,5.15
2022-12-04T10:49:38.584Z,5.08
2022-12-04T10:52:08.433Z,5.05
2022-12-04T10:54:37.540Z,5.01
2022-12-04T10:57:09.345Z,4.96
2022-12-04T10:59:40.792Z,4.92
2022-12-04T11:02:13.889Z,4.92
2022-12-04T11:04:42.340Z,4.88
2022-12-04T11:07:10.091Z,4.84
2022-12-04T11:09:38.304Z,4.87
2022-12-04T11:12:16.057Z,4.93
2022-12-04T11:14:46.946Z,4.98
2022-12-04T11:17:16.633Z,5.04
2022-12-04T11:19:44.718Z,5.10
2022-12-04T11:22:12.864Z,5.11
2022-12-04T11:24:40.495Z,5.14
2022-12-04T11:27:08.192Z,5.16
2022-12-04T11:29:36.220Z,5.21
2022-12-04T11:32:07.809Z,5.26
2022-12-04T11:34:38.580Z,5.33
2022-12-04T11:37:06.321Z,5.37
2022-12-04T11:39:34.540Z,5.40
2022-12-04T11:42:02.395Z,5.43
2022-12-04T11:44:33.432Z,5.47
2022-12-04T11:47:01.502Z,5.47
2022-12-04T11:49:30.327Z,5.42
2022-12-04T11:52:00.317Z,5.41
2022-12-04T11:54:28.469Z,5.37
2022-12-04T11:56:58.328Z,5.35
2022-12-04T11:59:29.659Z,5.39
2022-12-04T12:01:58.574Z,5.44
2022-12-04T12:04:27.855Z,5.43
2022-12-04T12:06:55.929Z,5.39
2022-12-04T12:09:26.916Z,5.36
2022-12-04T12:11:54.850Z,5.33
2022-12-04T12:14:23.712Z,5.29
2022-12-04T12:16:51.777Z,5.27
2022-12-04T12:19:20.565Z,5.25
2022-12-04T12:21:48.290Z,5.26
2022-12-04T12:24:16.107Z,5.27
2022-12-04T12:26:43.893Z,5.30
2022-12-04T12:29:11.604Z,5.34
2022-12-04T12:31:39.407Z,5.39
2022-12-04T12:34:07.090Z,5.39
2022-12-04T12:36:36.834Z,5.35
2022-12-04T12:39:09.023Z,5.31
2022-12-04T12:41:36.959Z,5.24
2022-12-04T12:44:04.711Z,5.17
2022-12-04T12:46:32.539Z,5.14
2022-12-04T12:49:00.251Z,5.11
2022-12-04T12:51:30.188Z,5.09
2022-12-04T12:53:59.030Z,5.09
2022-12-04T12:56:27.392Z,5.09
2022-12-04T12:58:57.306Z,5.07
2022-12-04T13:01:29.924Z,5.02
2022-12-04T13:03:57.872Z,4.98
2022-12-04T13:06:25.296Z,5.00
2022-12-04T13:08:53.129Z,5.02
2022-12-04T13:11:21.281Z,5.18
2022-12-04T13:13:48.993Z,5.77
2022-12-04T13:16:18.926Z,6.33
2022-12-04T13:18:47.389Z,6.84
2022-12-04T13:21:14.775Z,7.19
2022-12-04T13:23:42.454Z,7.41
2022-12-04T13:26:10.366Z,7.55
2022-12-04T13:28:38.051Z,7.58
2022-12-04T13:31:06.799Z,7.47
2022-12-04T13:33:43.629Z,7.24
2022-12-04T13:36:13.778Z,6.94
2022-12-04T13:38:43.859Z,6.62
2022-12-04T13:41:11.408Z,6.20
2022-12-04T13:43:39.285Z,5.76
2022-12-04T13:46:07.367Z,5.39
2022-12-04T13:48:35.038Z,5.11
2022-12-04T13:51:02.737Z,4.77
2022-12-04T13:53:30.400Z,4.45
2022-12-04T13:55:59.971Z,4.18
2022-12-04T13:58:30.648Z,3.90
2022-12-04T14:00:58.328Z,3.65
2022-12-04T14:03:26.255Z,3.48
2022-12-04T14:05:53.918Z,3.29
2022-12-04T14:08:21.414Z,3.14
2022-12-04T14:10:49.038Z,2.98
2022-12-04T14:13:17.093Z,2.81
2022-12-04T14:15:44.668Z,2.65
2022-12-04T14:18:12.200Z,2.52
2022-12-04T14:20:39.788Z,2.42
2022-12-04T14:23:07.431Z,2.34
2022-12-04T14:25:35.312Z,2.28
2022-12-04T14:28:03.089Z,2.19
2022-12-04T14:30:30.907Z,2.11
2022-12-04T14:32:58.678Z,2.04
2022-12-04T14:35:26.382Z,2.02
2022-12-04T14:37:53.998Z,2.02
2022-12-04T14:40:21.407Z,2.02
2022-12-04T14:42:48.811Z,2.00
2022-12-04T14:45:18.519Z,1.96
2022-12-04T14:47:46.469Z,1.91
2022-12-04T14:50:14.031Z,1.87
2022-12-04T14:52:42.341Z,1.88
2022-12-04T14:55:12.291Z,1.87
2022-12-04T14:57:40.400Z,1.84
2022-12-04T15:00:08.375Z,1.83
2022-12-04T15:02:38.632Z,1.81
2022-12-04T15:05:06.625Z,1.77
2022-12-04T15:07:34.679Z,1.73
2022-12-04T15:10:04.832Z,1.70
2022-12-04T15:12:33.022Z,1.71
2022-12-04T15:15:00.738Z,1.72
2022-12-04T15:17:28.378Z,1.74
2022-12-04T15:19:56.056Z,1.74
2022-12-04T15:22:23.859Z,1.74
2022-12-04T15:24:51.545Z,1.74
2022-12-04T15:27:18.954Z,1.77
2022-12-04T15:29:46.511Z,1.79
2022-12-04T15:32:14.032Z,1.81
2022-12-04T15:34:41.764Z,1.81
2022-12-04T15:37:09.356Z,1.81
2022-12-04T15:39:36.977Z,1.80
2022-12-04T15:42:04.546Z,1.78
2022-12-04T15:44:32.078Z,1.75
2022-12-04T15:46:59.714Z,1.76
2022-12-04T15:49:28.093Z,1.78
2022-12-04T15:51:55.979Z,1.81
2022-12-04T15:54:23.839Z,1.81
2022-12-04T15:56:51.258Z,1.80
2022-12-04T15:59:19.376Z,1.79
2022-12-04T16:01:47.049Z,1.77
2022-12-04T16:04:14.848Z,1.76
2022-12-04T16:06:42.585Z,1.79
2022-12-04T16:09:10.044Z,1.79
2022-12-04T16:11:37.559Z,1.81
2022-12-04T16:14:05.287Z,1.83
2022-12-04T16:16:33.212Z,1.82
2022-12-04T16:19:00.961Z,1.80
2022-12-04T16:21:28.853Z,1.79
2022-12-04T16:23:56.614Z,1.78
2022-12-04T16:26:24.333Z,1.80
2022-12-04T16:28:52.184Z,1.80
2022-12-04T16:31:19.978Z,1.82
2022-12-04T16:33:47.820Z,1.81
2022-12-04T16:36:15.501Z,1.80
2022-12-04T16:38:43.382Z,1.76
2022-12-04T16:41:11.018Z,1.71
2022-12-04T16:43:38.592Z,1.70
2022-12-04T16:46:06.097Z,1.67
2022-12-04T16:48:33.930Z,1.64
2022-12-04T16:51:02.369Z,1.60
2022-12-04T16:53:29.885Z,1.54
2022-12-04T16:55:57.733Z,1.49
2022-12-04T16:58:25.577Z,1.45
2022-12-04T17:00:53.336Z,1.47
2022-12-04T17:03:21.199Z,1.45
2022-12-04T17:05:48.849Z,1.44
2022-12-04T17:08:16.600Z,1.44
2022-12-04T17:10:44.267Z,1.43
2022-12-04T17:13:11.673Z,1.42
2022-12-04T17:15:39.052Z,1.42
2022-12-04T17:18:12.036Z,1.41
2022-12-04T17:20:41.848Z,1.44
2022-12-04T17:23:09.490Z,1.46
2022-12-04T17:25:37.250Z,1.48
2022-12-04T17:28:04.858Z,1.48
2022-12-04T17:30:36.026Z,1.44
2022-12-04T17:33:04.186Z,1.43
2022-12-04T17:35:31.777Z,1.41
2022-12-04T17:38:04.091Z,1.40
2022-12-04T17:40:33.164Z,1.42
2022-12-04T17:43:00.556Z,1.45
2022-12-04T17:45:28.239Z,1.46
2022-12-04T17:47:56.220Z,1.47
2022-12-04T17:50:23.742Z,1.47
2022-12-04T17:52:51.697Z,1.45
2022-12-04T17:55:19.340Z,1.42
2022-12-04T17:57:48.128Z,1.40
2022-12-04T18:00:17.235Z,1.40
2022-12-04T18:02:50.132Z,1.40
2022-12-04T18:05:20.771Z,1.38
2022-12-04T18:07:48.302Z,1.33
2022-12-04T18:10:15.959Z,1.32
2022-12-04T18:12:43.334Z,1.30
2022-12-04T18:15:11.066Z,1.34
2022-12-04T18:17:38.759Z,1.38
2022-12-04T18:20:06.659Z,1.41
2022-12-04T18:22:34.472Z,1.42
2022-12-04T18:25:02.118Z,1.42
2022-12-04T18:27:29.489Z,1.42
2022-12-04T18:29:57.241Z,1.42
2022-12-04T18:32:24.969Z,1.40
2022-12-04T18:34:52.742Z,1.39
2022-12-04T18:37:20.340Z,1.42
2022-12-04T18:39:48.011Z,1.44
2022-12-04T18:42:15.392Z,1.47
2022-12-04T18:44:43.278Z,1.48
2022-12-04T18:47:10.786Z,1.47
2022-12-04T18:49:38.351Z,1.45
2022-12-04T18:52:05.864Z,1.44
2022-12-04T18:54:33.360Z,1.42
2022-12-04T18:57:00.767Z,1.44
2022-12-04T18:59:28.439Z,1.47
2022-12-04T19:01:56.054Z,1.50
2022-12-04T19:04:23.905Z,1.49
2022-12-04T19:06:51.427Z,1.47
2022-12-04T19:09:19.661Z,1.46
2022-12-04T19:11:47.387Z,1.46
2022-12-04T19:14:22.748Z,1.51
2022-12-04T19:16:51.323Z,1.55
2022-12-04T19:19:18.864Z,1.54
2022-12-04T19:21:46.523Z,1.51
2022-12-04T19:24:14.211Z,1.50
2022-12-04T19:26:41.932Z,1.51
2022-12-04T19:29:09.419Z,1.52
2022-12-04T19:31:37.303Z,1.55
2022-12-04T19:34:05.096Z,1.56
2022-12-04T19:36:32.545Z,1.55
2022-12-04T19:39:00.062Z,1.51
2022-12-04T19:41:27.452Z,1.48
2022-12-04T19:43:54.815Z,1.45
2022-12-04T19:46:22.238Z,1.47
2022-12-04T19:48:49.768Z,1.49
2022-12-04T19:51:17.684Z,1.47
2022-12-04T19:53:45.259Z,1.45
2022-12-04T19:56:12.959Z,1.44
2022-12-04T19:58:40.492Z,1.42
2022-12-04T20:01:08.552Z,1.39
2022-12-04T20:03:36.624Z,1.38
2022-12-04T20:06:04.247Z,1.40
2022-12-04T20:08:32.219Z,1.42
2022-12-04T20:11:00.021Z,1.43
2022-12-04T20:13:27.549Z,1.43
2022-12-04T20:15:55.548Z,1.42
2022-12-04T20:18:23.249Z,1.39
2022-12-04T20:20:50.727Z,1.37
2022-12-04T20:23:18.531Z,1.41
2022-12-04T20:25:46.201Z,1.43
2022-12-04T20:28:14.669Z,1.44
2022-12-04T20:30:43.376Z,1.43
2022-12-04T20:33:10.964Z,1.40
2022-12-04T20:35:38.439Z,1.36
2022-12-04T20:38:07.120Z,1.33
2022-12-04T20:40:34.698Z,1.35
2022-12-04T20:43:02.088Z,1.35
2022-12-04T20:45:29.884Z,1.35
2022-12-04T20:47:57.530Z,1.33
2022-12-04T20:50:25.188Z,1.29
2022-12-04T20:52:52.676Z,1.26
2022-12-04T20:55:20.454Z,1.22
2022-12-04T20:57:48.074Z,1.19
2022-12-04T21:00:15.550Z,1.20
2022-12-04T21:02:43.250Z,1.18
2022-12-04T21:05:11.305Z,1.15
2022-12-04T21:07:39.352Z,1.14
2022-12-04T21:10:07.225Z,1.14
2022-12-04T21:12:39.860Z,1.13
2022-12-04T21:15:10.467Z,1.13
2022-12-04T21:17:37.973Z,1.12
2022-12-04T21:20:07.879Z,1.14
2022-12-04T21:22:35.804Z,1.14
2022-12-04T21:25:03.556Z,1.14
2022-12-04T21:27:31.247Z,1.14
2022-12-04T21:29:58.855Z,1.13
2022-12-04T21:32:26.699Z,1.13
2022-12-04T21:34:54.146Z,1.14
2022-12-04T21:37:21.722Z,1.10
2022-12-04T21:39:49.250Z,1.10
2022-12-04T21:42:16.738Z,1.11
2022-12-04T21:44:44.752Z,1.12
2022-12-04T21:47:12.578Z,1.15
2022-12-04T21:49:40.269Z,1.17
2022-12-04T21:52:07.939Z,1.16
2022-12-04T21:54:35.735Z,1.16
2022-12-04T21:57:03.313Z,1.15
2022-12-04T21:59:30.815Z,1.14
2022-12-04T22:01:58.375Z,1.16
2022-12-04T22:04:26.232Z,1.17
2022-12-04T22:06:53.725Z,1.17
2022-12-04T22:09:21.403Z,1.16
2022-12-04T22:11:49.157Z,1.12
2022-12-04T22:14:16.856Z,1.05
2022-12-04T22:16:44.447Z,1.00
2022-12-04T22:19:12.029Z,1.00
2022-12-04T22:21:39.846Z,1.00
2022-12-04T22:24:07.482Z,1.00
2022-12-04T22:26:35.211Z,0.99
2022-12-04T22:29:11.220Z,0.97
2022-12-04T22:31:50.453Z,0.92
2022-12-04T22:34:18.431Z,0.89
2022-12-04T22:36:46.126Z,0.91
2022-12-04T22:39:13.883Z,0.92
2022-12-04T22:41:41.403Z,0.93
2022-12-04T22:44:08.867Z,0.92
2022-12-04T22:46:36.669Z,0.86
2022-12-04T22:49:04.691Z,0.82
2022-12-04T22:51:32.369Z,0.83
2022-12-04T22:54:00.233Z,0.83
2022-12-04T22:56:27.817Z,0.84
2022-12-04T22:58:55.449Z,0.83
2022-12-04T23:01:23.027Z,0.79
2022-12-04T23:03:50.581Z,0.74
2022-12-04T23:06:18.549Z,0.70
2022-12-04T23:08:45.959Z,0.68
2022-12-04T23:11:13.489Z,0.67
2022-12-04T23:13:40.992Z,0.69
2022-12-04T23:16:09.853Z,0.71
2022-12-04T23:18:38.651Z,0.72
2022-12-04T23:21:06.250Z,0.74
2022-12-04T23:23:33.872Z,0.73
2022-12-04T23:26:01.255Z,0.74
2022-12-04T23:28:28.945Z,0.77
2022-12-04T23:30:56.879Z,0.83
2022-12-04T23:33:24.261Z,0.87
2022-12-04T23:35:51.879Z,0.88
2022-12-04T23:38:19.519Z,0.87
2022-12-04T23:40:47.503Z,0.84
2022-12-04T23:43:15.076Z,0.82
2022-12-04T23:45:42.701Z,0.82
2022-12-04T23:48:10.555Z,0.83
2022-12-04T23:50:38.412Z,0.82
2022-12-04T23:53:06.049Z,0.82
2022-12-04T23:55:34.703Z,0.82
2022-12-04T23:58:02.531Z,0.80
